createdAt,value
2018-12-14T00:00:09.545Z,108
2018-12-14T00:00:21.954Z,123
2018-12-14T00:00:34.392Z,123
2018-12-14T00:00:46.775Z,70
2018-12-14T00:00:59.133Z,69
2018-12-14T00:01:11.483Z,72
2018-12-14T00:01:23.821Z,72
2018-12-14T00:01:36.161Z,72
2018-12-14T00:01:48.510Z,72
2018-12-14T00:02:01.096Z,72
2018-12-14T00:02:13.489Z,72
2018-12-14T00:02:25.837Z,72
2018-12-14T00:02:38.190Z,72
2018-12-14T00:02:50.567Z,72
2018-12-14T00:03:02.945Z,72
2018-12-14T00:03:15.445Z,72
2018-12-14T00:03:27.804Z,72
2018-12-14T00:03:40.172Z,72
2018-12-14T00:03:52.630Z,72
2018-12-14T00:04:05.002Z,72
2018-12-14T00:04:17.416Z,72
2018-12-14T00:04:29.772Z,72
2018-12-14T00:04:42.114Z,72
2018-12-14T00:04:54.460Z,72
2018-12-14T00:05:06.825Z,72
2018-12-14T00:05:19.154Z,72
2018-12-14T00:05:31.500Z,71
2018-12-14T00:05:43.859Z,128
2018-12-14T00:05:56.197Z,127
2018-12-14T00:06:08.546Z,127
2018-12-14T00:06:20.894Z,126
2018-12-14T00:06:33.247Z,126
2018-12-14T00:06:45.614Z,126
2018-12-14T00:06:57.958Z,126
2018-12-14T00:07:10.454Z,126
2018-12-14T00:07:22.793Z,126
2018-12-14T00:07:35.137Z,126
2018-12-14T00:07:47.494Z,126
2018-12-14T00:07:59.875Z,127
2018-12-14T00:08:12.220Z,127
2018-12-14T00:08:24.587Z,127
2018-12-14T00:08:37.058Z,127
2018-12-14T00:08:49.417Z,127
2018-12-14T00:09:01.791Z,127
2018-12-14T00:09:14.171Z,127
2018-12-14T00:09:26.522Z,127
2018-12-14T00:09:38.904Z,127
2018-12-14T00:09:51.251Z,127
2018-12-14T00:10:03.595Z,127
2018-12-14T00:10:15.970Z,127
2018-12-14T00:10:28.318Z,127
2018-12-14T00:10:40.658Z,127
2018-12-14T00:10:53.001Z,127
2018-12-14T00:11:06.440Z,127
2018-12-14T00:11:18.772Z,127
2018-12-14T00:11:31.191Z,127
2018-12-14T00:11:49.989Z,127
2018-12-14T00:12:02.320Z,127
2018-12-14T00:12:14.690Z,111
2018-12-14T00:12:27.028Z,89
2018-12-14T00:12:39.381Z,88
2018-12-14T00:12:51.745Z,88
2018-12-14T00:13:04.113Z,88
2018-12-14T00:13:16.488Z,88
2018-12-14T00:13:28.826Z,88
2018-12-14T00:13:41.229Z,88
2018-12-14T00:13:53.557Z,88
2018-12-14T00:14:05.904Z,88
2018-12-14T00:14:18.258Z,88
2018-12-14T00:14:30.612Z,90
2018-12-14T00:14:42.993Z,90
2018-12-14T00:14:55.317Z,90
2018-12-14T00:15:07.649Z,90
2018-12-14T00:15:19.993Z,90
2018-12-14T00:15:32.351Z,90
2018-12-14T00:15:44.690Z,90
2018-12-14T00:15:57.026Z,90
2018-12-14T00:16:09.367Z,90
2018-12-14T00:16:21.727Z,90
2018-12-14T00:16:34.157Z,90
2018-12-14T00:16:46.497Z,90
2018-12-14T00:16:58.835Z,90
2018-12-14T00:17:11.170Z,98
2018-12-14T00:17:23.738Z,98
2018-12-14T00:17:36.102Z,98
2018-12-14T00:17:48.436Z,98
2018-12-14T00:18:00.783Z,98
2018-12-14T00:18:13.131Z,78
2018-12-14T00:18:25.843Z,77
2018-12-14T00:18:38.186Z,77
2018-12-14T00:18:50.548Z,77
2018-12-14T00:19:02.881Z,103
2018-12-14T00:19:15.270Z,131
2018-12-14T00:19:27.604Z,131
2018-12-14T00:19:39.951Z,108
2018-12-14T00:19:52.367Z,104
2018-12-14T00:20:04.705Z,117
2018-12-14T00:20:17.052Z,117
2018-12-14T00:20:29.406Z,117
2018-12-14T00:20:41.750Z,117
2018-12-14T00:20:54.157Z,117
2018-12-14T00:21:06.500Z,117
2018-12-14T00:21:18.836Z,117
2018-12-14T00:21:31.188Z,118
2018-12-14T00:21:43.539Z,118
2018-12-14T00:21:55.968Z,118
2018-12-14T00:22:08.341Z,117
2018-12-14T00:22:20.697Z,123
2018-12-14T00:22:33.062Z,122
2018-12-14T00:22:45.432Z,134
2018-12-14T00:22:57.792Z,144
2018-12-14T00:23:10.167Z,144
2018-12-14T00:23:22.541Z,144
2018-12-14T00:23:34.872Z,144
2018-12-14T00:23:47.227Z,144
2018-12-14T00:23:59.571Z,144
2018-12-14T00:24:11.918Z,144
2018-12-14T00:24:24.275Z,144
2018-12-14T00:24:36.630Z,144
2018-12-14T00:24:48.984Z,155
2018-12-14T00:25:01.353Z,150
2018-12-14T00:25:13.695Z,150
2018-12-14T00:25:26.049Z,150
2018-12-14T00:25:38.427Z,150
2018-12-14T00:25:50.871Z,150
2018-12-14T00:26:03.215Z,150
2018-12-14T00:26:15.560Z,150
2018-12-14T00:26:28.058Z,150
2018-12-14T00:26:40.436Z,150
2018-12-14T00:26:52.831Z,150
2018-12-14T00:27:05.177Z,150
2018-12-14T00:27:17.503Z,150
2018-12-14T00:27:29.851Z,150
2018-12-14T00:27:42.186Z,149
2018-12-14T00:27:54.750Z,139
2018-12-14T00:28:07.093Z,139
2018-12-14T00:28:19.538Z,138
2018-12-14T00:28:32.056Z,139
2018-12-14T00:28:44.395Z,139
2018-12-14T00:28:56.723Z,139
2018-12-14T00:29:09.071Z,139
2018-12-14T00:29:21.413Z,139
2018-12-14T00:29:33.814Z,139
2018-12-14T00:29:47.323Z,138
2018-12-14T00:29:59.816Z,139
2018-12-14T00:30:12.151Z,139
2018-12-14T00:30:24.487Z,138
2018-12-14T00:30:36.994Z,84
2018-12-14T00:30:49.333Z,82
2018-12-14T00:31:01.657Z,82
2018-12-14T00:31:14.137Z,82
2018-12-14T00:31:26.479Z,82
2018-12-14T00:31:38.958Z,82
2018-12-14T00:31:51.465Z,82
2018-12-14T00:32:03.872Z,84
2018-12-14T00:32:16.224Z,86
2018-12-14T00:32:28.756Z,86
2018-12-14T00:32:41.105Z,86
2018-12-14T00:32:53.635Z,83
2018-12-14T00:33:06.078Z,80
2018-12-14T00:33:18.413Z,80
2018-12-14T00:33:30.746Z,78
2018-12-14T00:33:43.082Z,78
2018-12-14T00:33:55.416Z,78
2018-12-14T00:34:07.760Z,78
2018-12-14T00:34:20.114Z,95
2018-12-14T00:34:32.447Z,156
2018-12-14T00:34:44.788Z,153
2018-12-14T00:34:57.124Z,133
2018-12-14T00:35:09.479Z,133
2018-12-14T00:35:21.956Z,133
2018-12-14T00:35:34.306Z,127
2018-12-14T00:35:46.645Z,127
2018-12-14T00:35:59.040Z,127
2018-12-14T00:36:11.389Z,127
2018-12-14T00:36:23.736Z,127
2018-12-14T00:36:36.100Z,127
2018-12-14T00:36:48.454Z,127
2018-12-14T00:37:00.789Z,127
2018-12-14T00:37:13.114Z,127
2018-12-14T00:37:25.458Z,127
2018-12-14T00:37:37.797Z,127
2018-12-14T00:37:50.147Z,127
2018-12-14T00:38:02.658Z,127
2018-12-14T00:38:15.123Z,127
2018-12-14T00:38:27.463Z,127
2018-12-14T00:38:39.840Z,127
2018-12-14T00:38:52.208Z,127
2018-12-14T00:39:04.555Z,127
2018-12-14T00:39:16.915Z,129
2018-12-14T00:39:29.279Z,129
2018-12-14T00:39:41.650Z,129
2018-12-14T00:39:54.123Z,129
2018-12-14T00:40:06.455Z,129
2018-12-14T00:40:19.040Z,129
2018-12-14T00:40:31.462Z,130
2018-12-14T00:40:43.808Z,129
2018-12-14T00:40:56.155Z,130
2018-12-14T00:41:08.790Z,129
2018-12-14T00:41:21.134Z,129
2018-12-14T00:41:33.468Z,129
2018-12-14T00:41:51.706Z,129
2018-12-14T00:42:04.271Z,109
2018-12-14T00:42:16.632Z,109
2018-12-14T00:42:29.000Z,109
2018-12-14T00:42:41.440Z,109
2018-12-14T00:42:53.795Z,109
2018-12-14T00:43:06.154Z,109
2018-12-14T00:43:18.522Z,109
2018-12-14T00:43:30.871Z,110
2018-12-14T00:43:43.224Z,110
2018-12-14T00:43:55.563Z,110
2018-12-14T00:44:07.912Z,110
2018-12-14T00:44:20.250Z,111
2018-12-14T00:44:32.600Z,111
2018-12-14T00:44:44.923Z,111
2018-12-14T00:44:57.270Z,111
2018-12-14T00:45:09.617Z,111
2018-12-14T00:45:21.952Z,111
2018-12-14T00:45:34.293Z,111
2018-12-14T00:45:46.643Z,111
2018-12-14T00:45:59.043Z,111
2018-12-14T00:46:11.539Z,111
2018-12-14T00:46:23.891Z,111
2018-12-14T00:46:36.226Z,111
2018-12-14T00:46:48.572Z,111
2018-12-14T00:47:00.915Z,111
2018-12-14T00:47:14.235Z,111
2018-12-14T00:47:26.575Z,111
2018-12-14T00:47:39.017Z,111
2018-12-14T00:47:51.375Z,111
2018-12-14T00:48:03.707Z,111
2018-12-14T00:48:16.069Z,111
2018-12-14T00:48:28.430Z,111
2018-12-14T00:48:40.761Z,111
2018-12-14T00:48:53.125Z,111
2018-12-14T00:49:05.610Z,117
2018-12-14T00:49:17.981Z,128
2018-12-14T00:49:30.317Z,163
2018-12-14T00:49:42.660Z,163
2018-12-14T00:49:55.001Z,148
2018-12-14T00:50:07.433Z,148
2018-12-14T00:50:19.764Z,148
2018-12-14T00:50:32.100Z,146
2018-12-14T00:50:44.437Z,145
2018-12-14T00:50:56.774Z,145
2018-12-14T00:51:09.114Z,84
2018-12-14T00:51:21.518Z,81
2018-12-14T00:51:33.850Z,109
2018-12-14T00:51:46.264Z,113
2018-12-14T00:51:58.612Z,113
2018-12-14T00:52:11.064Z,113
2018-12-14T00:52:23.406Z,113
2018-12-14T00:52:35.735Z,113
2018-12-14T00:52:48.380Z,113
2018-12-14T00:53:00.722Z,113
2018-12-14T00:53:13.095Z,113
2018-12-14T00:53:25.440Z,113
2018-12-14T00:53:37.988Z,113
2018-12-14T00:53:50.330Z,115
2018-12-14T00:54:02.730Z,133
2018-12-14T00:54:15.132Z,133
2018-12-14T00:54:27.467Z,133
2018-12-14T00:54:39.810Z,133
2018-12-14T00:54:52.132Z,133
2018-12-14T00:55:04.605Z,107
2018-12-14T00:55:17.037Z,80
2018-12-14T00:55:29.432Z,77
2018-12-14T00:55:41.827Z,76
2018-12-14T00:55:54.189Z,64
2018-12-14T00:56:06.546Z,53
2018-12-14T00:56:18.887Z,53
2018-12-14T00:56:31.231Z,53
2018-12-14T00:56:43.710Z,53
2018-12-14T00:56:56.057Z,53
2018-12-14T00:57:08.489Z,69
2018-12-14T00:57:20.831Z,117
2018-12-14T00:57:33.203Z,117
2018-12-14T00:57:45.580Z,117
2018-12-14T00:57:58.002Z,117
2018-12-14T00:58:10.357Z,117
2018-12-14T00:58:22.693Z,117
2018-12-14T00:58:35.032Z,117
2018-12-14T00:58:47.386Z,117
2018-12-14T00:58:59.792Z,117
2018-12-14T00:59:12.127Z,117
2018-12-14T00:59:24.470Z,117
2018-12-14T00:59:36.890Z,117
2018-12-14T00:59:49.235Z,117
2018-12-14T01:00:01.559Z,117
2018-12-14T01:00:14.074Z,119
2018-12-14T01:00:26.497Z,150
2018-12-14T01:00:38.852Z,141
2018-12-14T01:00:51.217Z,142
2018-12-14T01:01:03.569Z,144
2018-12-14T01:01:15.919Z,144
2018-12-14T01:01:28.257Z,136
2018-12-14T01:01:40.603Z,136
2018-12-14T01:01:52.947Z,138
2018-12-14T01:02:05.607Z,138
2018-12-14T01:02:17.941Z,138
2018-12-14T01:02:30.280Z,138
2018-12-14T01:02:42.620Z,128
2018-12-14T01:02:55.001Z,128
2018-12-14T01:03:07.693Z,128
2018-12-14T01:03:20.181Z,128
2018-12-14T01:03:32.529Z,128
2018-12-14T01:03:44.885Z,119
2018-12-14T01:03:57.243Z,119
2018-12-14T01:04:09.596Z,119
2018-12-14T01:04:21.965Z,119
2018-12-14T01:04:34.308Z,119
2018-12-14T01:04:46.663Z,119
2018-12-14T01:04:59.030Z,119
2018-12-14T01:05:11.371Z,119
2018-12-14T01:05:23.711Z,119
2018-12-14T01:05:36.078Z,119
2018-12-14T01:05:48.497Z,111
2018-12-14T01:06:00.850Z,111
2018-12-14T01:06:13.668Z,111
2018-12-14T01:06:26.047Z,111
2018-12-14T01:06:38.402Z,111
2018-12-14T01:06:50.747Z,111
2018-12-14T01:07:03.104Z,111
2018-12-14T01:07:15.436Z,111
2018-12-14T01:07:27.771Z,111
2018-12-14T01:07:40.113Z,124
2018-12-14T01:07:52.456Z,124
2018-12-14T01:08:04.806Z,124
2018-12-14T01:08:17.401Z,124
2018-12-14T01:08:29.731Z,124
2018-12-14T01:08:42.091Z,124
2018-12-14T01:08:54.429Z,124
2018-12-14T01:09:06.766Z,124
2018-12-14T01:09:19.111Z,124
2018-12-14T01:09:31.448Z,124
2018-12-14T01:09:43.793Z,124
2018-12-14T01:09:56.144Z,124
2018-12-14T01:10:08.542Z,124
2018-12-14T01:10:20.886Z,124
2018-12-14T01:10:33.267Z,124
2018-12-14T01:10:45.608Z,124
2018-12-14T01:10:57.960Z,124
2018-12-14T01:11:10.298Z,124
2018-12-14T01:11:22.668Z,124
2018-12-14T01:11:35.005Z,124
2018-12-14T01:11:47.338Z,124
2018-12-14T01:12:06.054Z,124
2018-12-14T01:12:18.397Z,124
2018-12-14T01:12:30.727Z,124
2018-12-14T01:12:43.062Z,124
2018-12-14T01:12:55.434Z,124
2018-12-14T01:13:07.789Z,124
2018-12-14T01:13:20.287Z,124
2018-12-14T01:13:32.840Z,124
2018-12-14T01:13:45.257Z,124
2018-12-14T01:13:57.601Z,124
2018-12-14T01:14:10.040Z,124
2018-12-14T01:14:22.387Z,124
2018-12-14T01:14:34.715Z,124
2018-12-14T01:14:47.052Z,124
2018-12-14T01:14:59.400Z,103
2018-12-14T01:15:11.766Z,103
2018-12-14T01:15:24.159Z,103
2018-12-14T01:15:36.488Z,103
2018-12-14T01:15:48.934Z,101
2018-12-14T01:16:01.266Z,91
2018-12-14T01:16:13.593Z,84
2018-12-14T01:16:25.965Z,84
2018-12-14T01:16:38.301Z,84
2018-12-14T01:16:50.635Z,84
2018-12-14T01:17:03.001Z,84
2018-12-14T01:17:15.555Z,84
2018-12-14T01:17:27.892Z,84
2018-12-14T01:17:40.360Z,84
2018-12-14T01:17:52.726Z,84
2018-12-14T01:18:05.074Z,84
2018-12-14T01:18:17.813Z,84
2018-12-14T01:18:30.166Z,84
2018-12-14T01:18:42.509Z,84
2018-12-14T01:18:54.881Z,84
2018-12-14T01:19:07.212Z,84
2018-12-14T01:19:19.570Z,84
2018-12-14T01:19:31.919Z,84
2018-12-14T01:19:44.269Z,84
2018-12-14T01:19:56.633Z,84
2018-12-14T01:20:08.990Z,84
2018-12-14T01:20:21.335Z,84
2018-12-14T01:20:33.724Z,84
2018-12-14T01:20:46.085Z,84
2018-12-14T01:20:58.427Z,84
2018-12-14T01:21:10.760Z,84
2018-12-14T01:21:23.141Z,84
2018-12-14T01:21:35.473Z,84
2018-12-14T01:21:47.843Z,84
2018-12-14T01:22:00.179Z,84
2018-12-14T01:22:12.536Z,84
2018-12-14T01:22:24.906Z,84
2018-12-14T01:22:37.250Z,84
2018-12-14T01:22:50.294Z,84
2018-12-14T01:23:02.648Z,84
2018-12-14T01:23:14.986Z,84
2018-12-14T01:23:27.322Z,84
2018-12-14T01:23:39.660Z,84
2018-12-14T01:23:52.025Z,84
2018-12-14T01:24:04.416Z,88
2018-12-14T01:24:16.756Z,103
2018-12-14T01:24:29.113Z,123
2018-12-14T01:24:41.466Z,124
2018-12-14T01:24:53.832Z,124
2018-12-14T01:25:06.164Z,124
2018-12-14T01:25:18.490Z,124
2018-12-14T01:25:30.841Z,131
2018-12-14T01:25:43.174Z,131
2018-12-14T01:25:55.536Z,131
2018-12-14T01:26:08.026Z,131
2018-12-14T01:26:20.367Z,131
2018-12-14T01:26:32.865Z,131
2018-12-14T01:26:45.215Z,131
2018-12-14T01:26:57.552Z,131
2018-12-14T01:27:09.967Z,131
2018-12-14T01:27:22.309Z,131
2018-12-14T01:27:34.664Z,131
2018-12-14T01:27:47.019Z,131
2018-12-14T01:27:59.351Z,131
2018-12-14T01:28:11.852Z,131
2018-12-14T01:28:24.201Z,131
2018-12-14T01:28:36.604Z,131
2018-12-14T01:28:48.947Z,130
2018-12-14T01:29:01.303Z,75
2018-12-14T01:29:13.692Z,76
2018-12-14T01:29:26.036Z,76
2018-12-14T01:29:38.503Z,76
2018-12-14T01:29:50.868Z,123
2018-12-14T01:30:03.225Z,123
2018-12-14T01:30:15.562Z,56
2018-12-14T01:30:27.900Z,55
2018-12-14T01:30:40.442Z,113
2018-12-14T01:30:52.792Z,115
2018-12-14T01:31:05.152Z,115
2018-12-14T01:31:17.493Z,115
2018-12-14T01:31:29.836Z,139
2018-12-14T01:31:42.180Z,142
2018-12-14T01:31:54.685Z,142
2018-12-14T01:32:07.034Z,142
2018-12-14T01:32:19.384Z,142
2018-12-14T01:32:31.745Z,148
2018-12-14T01:32:44.087Z,148
2018-12-14T01:32:56.589Z,148
2018-12-14T01:33:09.063Z,148
2018-12-14T01:33:21.403Z,148
2018-12-14T01:33:33.742Z,148
2018-12-14T01:33:46.107Z,148
2018-12-14T01:33:58.460Z,148
2018-12-14T01:34:10.813Z,148
2018-12-14T01:34:23.169Z,148
2018-12-14T01:34:35.507Z,148
2018-12-14T01:34:48.139Z,54
2018-12-14T01:35:00.497Z,92
2018-12-14T01:35:12.850Z,129
2018-12-14T01:35:25.330Z,129
2018-12-14T01:35:37.681Z,129
2018-12-14T01:35:50.017Z,129
2018-12-14T01:36:02.381Z,129
2018-12-14T01:36:14.711Z,129
2018-12-14T01:36:27.053Z,129
2018-12-14T01:36:39.404Z,129
2018-12-14T01:36:51.820Z,129
2018-12-14T01:37:04.160Z,129
2018-12-14T01:37:16.514Z,129
2018-12-14T01:37:28.872Z,129
2018-12-14T01:37:41.214Z,129
2018-12-14T01:37:53.566Z,153
2018-12-14T01:38:06.255Z,128
2018-12-14T01:38:18.588Z,132
2018-12-14T01:38:30.927Z,148
2018-12-14T01:38:43.277Z,148
2018-12-14T01:38:55.614Z,148
2018-12-14T01:39:07.964Z,144
2018-12-14T01:39:20.307Z,144
2018-12-14T01:39:32.654Z,144
2018-12-14T01:39:45.028Z,126
2018-12-14T01:39:57.552Z,129
2018-12-14T01:40:09.885Z,125
2018-12-14T01:40:22.242Z,125
2018-12-14T01:40:34.667Z,125
2018-12-14T01:40:47.029Z,125
2018-12-14T01:40:59.503Z,125
2018-12-14T01:41:12.002Z,125
2018-12-14T01:41:24.372Z,135
2018-12-14T01:41:36.704Z,135
2018-12-14T01:41:49.029Z,135
2018-12-14T01:42:08.184Z,135
2018-12-14T01:42:20.540Z,135
2018-12-14T01:42:32.882Z,135
2018-12-14T01:42:45.241Z,135
2018-12-14T01:42:57.576Z,135
2018-12-14T01:43:09.930Z,135
2018-12-14T01:43:22.275Z,135
2018-12-14T01:43:34.634Z,135
2018-12-14T01:43:46.984Z,135
2018-12-14T01:43:59.319Z,135
2018-12-14T01:44:11.666Z,135
2018-12-14T01:44:23.991Z,135
2018-12-14T01:44:36.568Z,135
2018-12-14T01:44:48.909Z,135
2018-12-14T01:45:01.248Z,135
2018-12-14T01:45:13.627Z,134
2018-12-14T01:45:25.976Z,121
2018-12-14T01:45:38.382Z,121
2018-12-14T01:45:50.796Z,121
2018-12-14T01:46:03.182Z,121
2018-12-14T01:46:15.541Z,121
2018-12-14T01:46:27.894Z,121
2018-12-14T01:46:40.225Z,121
2018-12-14T01:46:52.585Z,121
2018-12-14T01:47:04.981Z,121
2018-12-14T01:47:17.327Z,121
2018-12-14T01:47:29.670Z,121
2018-12-14T01:47:42.066Z,121
2018-12-14T01:47:54.402Z,121
2018-12-14T01:48:06.768Z,121
2018-12-14T01:48:20.476Z,121
2018-12-14T01:48:32.833Z,121
2018-12-14T01:48:45.176Z,121
2018-12-14T01:48:57.549Z,121
2018-12-14T01:49:09.883Z,121
2018-12-14T01:49:22.262Z,121
2018-12-14T01:49:34.648Z,121
2018-12-14T01:49:47.002Z,121
2018-12-14T01:49:59.376Z,121
2018-12-14T01:50:11.867Z,121
2018-12-14T01:50:24.198Z,121
2018-12-14T01:50:36.563Z,121
2018-12-14T01:50:48.896Z,121
2018-12-14T01:51:01.247Z,121
2018-12-14T01:51:13.584Z,121
2018-12-14T01:51:25.943Z,121
2018-12-14T01:51:38.316Z,121
2018-12-14T01:51:50.676Z,121
2018-12-14T01:52:03.039Z,121
2018-12-14T01:52:15.494Z,121
2018-12-14T01:52:27.841Z,121
2018-12-14T01:52:40.188Z,121
2018-12-14T01:52:52.621Z,121
2018-12-14T01:53:04.978Z,98
2018-12-14T01:53:17.327Z,91
2018-12-14T01:53:29.665Z,77
2018-12-14T01:53:42.147Z,74
2018-12-14T01:53:54.557Z,74
2018-12-14T01:54:07.064Z,74
2018-12-14T01:54:19.431Z,74
2018-12-14T01:54:31.788Z,74
2018-12-14T01:54:44.134Z,74
2018-12-14T01:54:56.614Z,103
2018-12-14T01:55:08.960Z,103
2018-12-14T01:55:21.424Z,103
2018-12-14T01:55:33.776Z,103
2018-12-14T01:55:46.108Z,103
2018-12-14T01:55:58.462Z,103
2018-12-14T01:56:10.949Z,103
2018-12-14T01:56:23.314Z,103
2018-12-14T01:56:35.671Z,103
2018-12-14T01:56:48.077Z,103
2018-12-14T01:57:00.466Z,103
2018-12-14T01:57:12.836Z,103
2018-12-14T01:57:25.187Z,103
2018-12-14T01:57:37.548Z,103
2018-12-14T01:57:49.887Z,103
2018-12-14T01:58:02.228Z,103
2018-12-14T01:58:14.578Z,103
2018-12-14T01:58:26.927Z,103
2018-12-14T01:58:39.266Z,103
2018-12-14T01:58:51.608Z,103
2018-12-14T01:59:04.095Z,103
2018-12-14T01:59:16.467Z,103
2018-12-14T01:59:28.815Z,103
2018-12-14T01:59:41.162Z,103
2018-12-14T01:59:53.493Z,103
2018-12-14T02:00:06.099Z,84
2018-12-14T02:00:18.467Z,83
2018-12-14T02:00:30.919Z,28
2018-12-14T02:00:43.368Z,28
2018-12-14T02:00:55.735Z,55
2018-12-14T02:01:08.155Z,96
2018-12-14T02:01:20.495Z,96
2018-12-14T02:01:32.837Z,97
2018-12-14T02:01:45.181Z,97
2018-12-14T02:01:57.518Z,97
2018-12-14T02:02:10.142Z,97
2018-12-14T02:02:22.498Z,97
2018-12-14T02:02:34.835Z,97
2018-12-14T02:02:47.187Z,97
2018-12-14T02:02:59.542Z,97
2018-12-14T02:03:11.972Z,97
2018-12-14T02:03:24.507Z,97
2018-12-14T02:03:36.863Z,97
2018-12-14T02:03:49.210Z,97
2018-12-14T02:04:01.554Z,97
2018-12-14T02:04:13.912Z,97
2018-12-14T02:04:26.338Z,97
2018-12-14T02:04:39.455Z,97
2018-12-14T02:04:51.815Z,97
2018-12-14T02:05:04.184Z,97
2018-12-14T02:05:16.559Z,97
2018-12-14T02:05:28.986Z,97
2018-12-14T02:05:41.406Z,97
2018-12-14T02:05:53.755Z,97
2018-12-14T02:06:06.117Z,97
2018-12-14T02:06:18.475Z,97
2018-12-14T02:06:30.826Z,97
2018-12-14T02:06:43.207Z,97
2018-12-14T02:06:55.551Z,97
2018-12-14T02:07:08.006Z,97
2018-12-14T02:07:20.344Z,97
2018-12-14T02:07:32.674Z,97
2018-12-14T02:07:45.014Z,97
2018-12-14T02:07:57.351Z,37
2018-12-14T02:08:09.754Z,42
2018-12-14T02:08:22.084Z,45
2018-12-14T02:08:34.428Z,45
2018-12-14T02:08:46.762Z,45
2018-12-14T02:08:59.187Z,50
2018-12-14T02:09:11.539Z,51
2018-12-14T02:09:23.883Z,51
2018-12-14T02:09:36.237Z,51
2018-12-14T02:09:48.627Z,51
2018-12-14T02:10:01.084Z,51
2018-12-14T02:10:13.433Z,54
2018-12-14T02:10:25.763Z,69
2018-12-14T02:10:38.111Z,69
2018-12-14T02:10:50.447Z,69
2018-12-14T02:11:02.796Z,69
2018-12-14T02:11:15.148Z,63
2018-12-14T02:11:27.527Z,53
2018-12-14T02:11:39.851Z,53
2018-12-14T02:11:52.203Z,53
2018-12-14T02:12:11.068Z,53
2018-12-14T02:12:23.672Z,53
2018-12-14T02:12:36.122Z,53
2018-12-14T02:12:48.476Z,57
2018-12-14T02:13:00.824Z,68
2018-12-14T02:13:13.376Z,90
2018-12-14T02:13:25.714Z,93
2018-12-14T02:13:38.067Z,93
2018-12-14T02:13:50.409Z,93
2018-12-14T02:14:02.773Z,97
2018-12-14T02:14:16.659Z,98
2018-12-14T02:14:29.031Z,42
2018-12-14T02:14:41.362Z,42
2018-12-14T02:14:53.737Z,61
2018-12-14T02:15:06.079Z,140
2018-12-14T02:15:18.431Z,140
2018-12-14T02:15:30.793Z,140
2018-12-14T02:15:43.135Z,140
2018-12-14T02:15:55.491Z,140
2018-12-14T02:16:07.845Z,140
2018-12-14T02:16:20.193Z,140
2018-12-14T02:16:32.530Z,140
2018-12-14T02:16:44.862Z,140
2018-12-14T02:16:57.228Z,140
2018-12-14T02:17:09.571Z,140
2018-12-14T02:17:22.034Z,134
2018-12-14T02:17:34.393Z,120
2018-12-14T02:17:46.800Z,121
2018-12-14T02:17:59.215Z,90
2018-12-14T02:18:11.559Z,107
2018-12-14T02:18:24.163Z,140
2018-12-14T02:18:36.527Z,148
2018-12-14T02:18:48.880Z,148
2018-12-14T02:19:01.228Z,148
2018-12-14T02:19:13.588Z,143
2018-12-14T02:19:27.101Z,109
2018-12-14T02:19:39.474Z,109
2018-12-14T02:19:51.846Z,111
2018-12-14T02:20:04.276Z,112
2018-12-14T02:20:16.718Z,130
2018-12-14T02:20:29.053Z,143
2018-12-14T02:20:41.406Z,143
2018-12-14T02:20:53.753Z,121
2018-12-14T02:21:06.105Z,121
2018-12-14T02:21:18.464Z,137
2018-12-14T02:21:30.810Z,144
2018-12-14T02:21:43.243Z,144
2018-12-14T02:21:55.602Z,144
2018-12-14T02:22:07.949Z,144
2018-12-14T02:22:20.288Z,138
2018-12-14T02:22:32.668Z,144
2018-12-14T02:22:45.050Z,150
2018-12-14T02:22:57.421Z,171
2018-12-14T02:23:09.777Z,171
2018-12-14T02:23:22.155Z,171
2018-12-14T02:23:34.508Z,141
2018-12-14T02:23:47.010Z,128
2018-12-14T02:23:59.377Z,142
2018-12-14T02:24:11.745Z,132
2018-12-14T02:24:24.083Z,136
2018-12-14T02:24:36.452Z,126
2018-12-14T02:24:48.961Z,142
2018-12-14T02:25:01.323Z,140
2018-12-14T02:25:13.677Z,141
2018-12-14T02:25:26.028Z,136
2018-12-14T02:25:38.383Z,142
2018-12-14T02:25:50.720Z,135
2018-12-14T02:26:03.054Z,144
2018-12-14T02:26:15.384Z,117
2018-12-14T02:26:27.901Z,117
2018-12-14T02:26:40.246Z,123
2018-12-14T02:26:52.577Z,126
2018-12-14T02:27:04.934Z,127
2018-12-14T02:27:17.258Z,127
2018-12-14T02:27:29.678Z,127
2018-12-14T02:27:42.087Z,127
2018-12-14T02:27:54.492Z,125
2018-12-14T02:28:06.841Z,109
2018-12-14T02:28:19.364Z,126
2018-12-14T02:28:31.719Z,128
2018-12-14T02:28:44.109Z,120
2018-12-14T02:28:56.462Z,112
2018-12-14T02:29:08.799Z,68
2018-12-14T02:29:21.137Z,51
2018-12-14T02:29:33.479Z,51
2018-12-14T02:29:46.089Z,87
2018-12-14T02:29:58.472Z,133
2018-12-14T02:30:10.870Z,109
2018-12-14T02:30:23.257Z,130
2018-12-14T02:30:35.879Z,143
2018-12-14T02:30:48.305Z,123
2018-12-14T02:31:00.687Z,111
2018-12-14T02:31:13.167Z,140
2018-12-14T02:31:25.523Z,129
2018-12-14T02:31:37.880Z,126
2018-12-14T02:31:50.247Z,123
2018-12-14T02:32:02.766Z,123
2018-12-14T02:32:15.135Z,123
2018-12-14T02:32:27.493Z,123
2018-12-14T02:32:39.903Z,123
2018-12-14T02:32:52.428Z,95
2018-12-14T02:33:04.795Z,95
2018-12-14T02:33:17.171Z,138
2018-12-14T02:33:29.541Z,136
2018-12-14T02:33:41.910Z,153
2018-12-14T02:33:54.263Z,137
2018-12-14T02:34:06.714Z,147
2018-12-14T02:34:19.089Z,134
2018-12-14T02:34:31.464Z,134
2018-12-14T02:34:43.905Z,159
2018-12-14T02:34:56.330Z,162
2018-12-14T02:35:08.713Z,154
2018-12-14T02:35:21.151Z,161
2018-12-14T02:35:33.676Z,119
2018-12-14T02:35:46.014Z,113
2018-12-14T02:35:58.407Z,122
2018-12-14T02:36:10.811Z,112
2018-12-14T02:36:23.177Z,128
2018-12-14T02:36:35.516Z,128
2018-12-14T02:36:47.860Z,128
2018-12-14T02:37:00.211Z,128
2018-12-14T02:37:12.557Z,128
2018-12-14T02:37:25.208Z,113
2018-12-14T02:37:37.538Z,127
2018-12-14T02:37:49.888Z,138
2018-12-14T02:38:02.235Z,142
2018-12-14T02:38:14.842Z,142
2018-12-14T02:38:27.194Z,148
2018-12-14T02:38:39.557Z,140
2018-12-14T02:38:51.984Z,128
2018-12-14T02:39:04.352Z,126
2018-12-14T02:39:16.733Z,95
2018-12-14T02:39:29.155Z,68
2018-12-14T02:39:41.567Z,148
2018-12-14T02:39:54.049Z,148
2018-12-14T02:40:06.421Z,144
2018-12-14T02:40:18.848Z,144
2018-12-14T02:40:31.213Z,144
2018-12-14T02:40:43.569Z,130
2018-12-14T02:40:55.961Z,116
2018-12-14T02:41:08.598Z,134
2018-12-14T02:41:20.966Z,135
2018-12-14T02:41:33.428Z,144
2018-12-14T02:41:45.785Z,155
2018-12-14T02:41:58.137Z,135
2018-12-14T02:42:10.508Z,126
2018-12-14T02:42:30.556Z,131
2018-12-14T02:42:42.927Z,146
2018-12-14T02:42:55.293Z,141
2018-12-14T02:43:07.821Z,115
2018-12-14T02:43:20.175Z,135
2018-12-14T02:43:32.555Z,101
2018-12-14T02:43:44.913Z,93
2018-12-14T02:43:57.369Z,98
2018-12-14T02:44:09.723Z,115
2018-12-14T02:44:22.080Z,90
2018-12-14T02:44:34.596Z,103
2018-12-14T02:44:46.965Z,103
2018-12-14T02:44:59.323Z,125
2018-12-14T02:45:11.712Z,135
2018-12-14T02:45:24.072Z,130
2018-12-14T02:45:36.723Z,56
2018-12-14T02:45:49.121Z,109
2018-12-14T02:46:01.454Z,109
2018-12-14T02:46:13.800Z,109
2018-12-14T02:46:26.163Z,109
2018-12-14T02:46:38.575Z,109
2018-12-14T02:46:50.935Z,173
2018-12-14T02:47:03.302Z,173
2018-12-14T02:47:15.643Z,148
2018-12-14T02:47:28.006Z,148
2018-12-14T02:47:40.366Z,148
2018-12-14T02:47:52.706Z,157
2018-12-14T02:48:05.109Z,130
2018-12-14T02:48:17.507Z,132
2018-12-14T02:48:29.857Z,131
2018-12-14T02:48:42.223Z,140
2018-12-14T02:48:54.664Z,140
2018-12-14T02:49:07.058Z,128
2018-12-14T02:49:19.408Z,126
2018-12-14T02:49:31.781Z,130
2018-12-14T02:49:45.597Z,130
2018-12-14T02:49:57.991Z,130
2018-12-14T02:50:10.504Z,130
2018-12-14T02:50:22.841Z,130
2018-12-14T02:50:35.198Z,130
2018-12-14T02:50:47.591Z,130
2018-12-14T02:50:59.963Z,130
2018-12-14T02:51:12.305Z,152
2018-12-14T02:51:24.681Z,153
2018-12-14T02:51:37.047Z,152
2018-12-14T02:51:49.423Z,152
2018-12-14T02:52:01.801Z,152
2018-12-14T02:52:14.239Z,152
2018-12-14T02:52:26.636Z,152
2018-12-14T02:52:38.993Z,152
2018-12-14T02:52:51.577Z,152